sensor_id;sensor_type;location;lat;lon;timestamp;P1;durP1;ratioP1;P2;durP2;ratioP2
37453;SDS011;23315;52.078;4.756;2023-09-19T00:01:05;9.18;;;2.17;;
37453;SDS011;23315;52.078;4.756;2023-09-19T00:03:33;9.85;;;2.25;;
37453;SDS011;23315;52.078;4.756;2023-09-19T00:06:02;10.68;;;2.00;;
37453;SDS011;23315;52.078;4.756;2023-09-19T00:08:28;9.25;;;2.65;;
37453;SDS011;23315;52.078;4.756;2023-09-19T00:10:53;10.18;;;2.63;;
37453;SDS011;23315;52.078;4.756;2023-09-19T00:13:19;8.52;;;1.95;;
37453;SDS011;23315;52.078;4.756;2023-09-19T00:15:46;12.90;;;2.92;;
37453;SDS011;23315;52.078;4.756;2023-09-19T00:18:14;10.73;;;2.10;;
37453;SDS011;23315;52.078;4.756;2023-09-19T00:20:40;8.25;;;2.63;;
37453;SDS011;23315;52.078;4.756;2023-09-19T00:23:07;6.55;;;1.80;;
37453;SDS011;23315;52.078;4.756;2023-09-19T00:25:36;10.63;;;2.20;;
37453;SDS011;23315;52.078;4.756;2023-09-19T00:28:02;11.85;;;2.63;;
37453;SDS011;23315;52.078;4.756;2023-09-19T00:30:32;7.78;;;2.17;;
37453;SDS011;23315;52.078;4.756;2023-09-19T00:32:58;6.75;;;1.90;;
37453;SDS011;23315;52.078;4.756;2023-09-19T00:35:23;8.93;;;2.20;;
37453;SDS011;23315;52.078;4.756;2023-09-19T00:37:49;9.48;;;2.38;;
37453;SDS011;23315;52.078;4.756;2023-09-19T00:40:15;11.02;;;1.98;;
37453;SDS011;23315;52.078;4.756;2023-09-19T00:42:44;9.27;;;2.05;;
37453;SDS011;23315;52.078;4.756;2023-09-19T00:45:11;12.10;;;1.80;;
37453;SDS011;23315;52.078;4.756;2023-09-19T00:47:38;9.43;;;2.83;;
37453;SDS011;23315;52.078;4.756;2023-09-19T00:50:06;8.68;;;2.30;;
37453;SDS011;23315;52.078;4.756;2023-09-19T00:52:37;8.35;;;2.13;;
37453;SDS011;23315;52.078;4.756;2023-09-19T00:55:04;15.45;;;2.50;;
37453;SDS011;23315;52.078;4.756;2023-09-19T00:57:34;6.40;;;1.80;;
37453;SDS011;23315;52.078;4.756;2023-09-19T01:00:01;11.85;;;2.45;;
37453;SDS011;23315;52.078;4.756;2023-09-19T01:02:31;9.70;;;2.25;;
37453;SDS011;23315;52.078;4.756;2023-09-19T01:04:57;9.02;;;2.35;;
37453;SDS011;23315;52.078;4.756;2023-09-19T01:07:23;9.45;;;2.67;;
37453;SDS011;23315;52.078;4.756;2023-09-19T01:09:49;12.15;;;2.63;;
37453;SDS011;23315;52.078;4.756;2023-09-19T01:12:16;13.57;;;2.50;;
37453;SDS011;23315;52.078;4.756;2023-09-19T01:14:55;11.32;;;2.50;;
37453;SDS011;23315;52.078;4.756;2023-09-19T01:17:27;10.50;;;2.60;;
37453;SDS011;23315;52.078;4.756;2023-09-19T01:25:17;8.68;;;1.85;;
37453;SDS011;23315;52.078;4.756;2023-09-19T01:30:42;9.82;;;2.78;;
37453;SDS011;23315;52.078;4.756;2023-09-19T01:33:08;11.15;;;2.67;;
37453;SDS011;23315;52.078;4.756;2023-09-19T01:35:37;14.48;;;2.47;;
37453;SDS011;23315;52.078;4.756;2023-09-19T01:38:04;9.60;;;2.38;;
37453;SDS011;23315;52.078;4.756;2023-09-19T01:40:32;9.15;;;1.92;;
37453;SDS011;23315;52.078;4.756;2023-09-19T01:45:37;9.38;;;2.25;;
37453;SDS011;23315;52.078;4.756;2023-09-19T01:48:55;12.80;;;2.25;;
37453;SDS011;23315;52.078;4.756;2023-09-19T01:51:01;20.52;;;2.72;;
37453;SDS011;23315;52.078;4.756;2023-09-19T01:56:07;13.43;;;2.42;;
37453;SDS011;23315;52.078;4.756;2023-09-19T01:58:38;10.20;;;1.90;;
37453;SDS011;23315;52.078;4.756;2023-09-19T02:01:08;14.02;;;1.83;;
37453;SDS011;23315;52.078;4.756;2023-09-19T02:03:37;10.52;;;1.83;;
37453;SDS011;23315;52.078;4.756;2023-09-19T02:06:03;10.65;;;1.83;;
37453;SDS011;23315;52.078;4.756;2023-09-19T02:08:30;9.02;;;2.28;;
37453;SDS011;23315;52.078;4.756;2023-09-19T02:10:58;12.45;;;2.35;;
37453;SDS011;23315;52.078;4.756;2023-09-19T02:13:24;8.30;;;1.77;;
37453;SDS011;23315;52.078;4.756;2023-09-19T02:15:50;9.27;;;1.92;;
37453;SDS011;23315;52.078;4.756;2023-09-19T02:18:16;17.50;;;3.00;;
37453;SDS011;23315;52.078;4.756;2023-09-19T02:20:42;8.63;;;1.92;;
37453;SDS011;23315;52.078;4.756;2023-09-19T02:23:08;14.20;;;2.13;;
37453;SDS011;23315;52.078;4.756;2023-09-19T02:25:34;11.25;;;2.33;;
37453;SDS011;23315;52.078;4.756;2023-09-19T02:28:00;10.93;;;1.73;;
37453;SDS011;23315;52.078;4.756;2023-09-19T02:30:28;9.40;;;2.50;;
37453;SDS011;23315;52.078;4.756;2023-09-19T02:32:54;9.63;;;2.22;;
37453;SDS011;23315;52.078;4.756;2023-09-19T02:35:19;10.93;;;2.10;;
37453;SDS011;23315;52.078;4.756;2023-09-19T02:37:45;9.90;;;2.15;;
37453;SDS011;23315;52.078;4.756;2023-09-19T02:40:11;11.52;;;3.03;;
37453;SDS011;23315;52.078;4.756;2023-09-19T02:42:52;8.88;;;2.42;;
37453;SDS011;23315;52.078;4.756;2023-09-19T02:45:19;22.10;;;3.63;;
37453;SDS011;23315;52.078;4.756;2023-09-19T02:47:45;15.68;;;2.80;;
37453;SDS011;23315;52.078;4.756;2023-09-19T02:50:13;15.02;;;2.92;;
37453;SDS011;23315;52.078;4.756;2023-09-19T02:52:45;25.80;;;3.45;;
37453;SDS011;23315;52.078;4.756;2023-09-19T02:55:14;15.48;;;2.85;;
37453;SDS011;23315;52.078;4.756;2023-09-19T02:57:52;10.70;;;2.80;;
37453;SDS011;23315;52.078;4.756;2023-09-19T03:00:19;16.15;;;4.05;;
37453;SDS011;23315;52.078;4.756;2023-09-19T03:02:46;14.90;;;3.08;;
37453;SDS011;23315;52.078;4.756;2023-09-19T03:05:14;16.80;;;3.08;;
37453;SDS011;23315;52.078;4.756;2023-09-19T03:07:40;12.27;;;2.83;;
37453;SDS011;23315;52.078;4.756;2023-09-19T03:10:08;14.50;;;3.35;;
37453;SDS011;23315;52.078;4.756;2023-09-19T03:12:34;15.50;;;2.97;;
37453;SDS011;23315;52.078;4.756;2023-09-19T03:15:00;12.27;;;2.92;;
37453;SDS011;23315;52.078;4.756;2023-09-19T03:17:25;12.52;;;2.97;;
37453;SDS011;23315;52.078;4.756;2023-09-19T03:19:51;23.17;;;3.03;;
37453;SDS011;23315;52.078;4.756;2023-09-19T03:22:16;22.50;;;3.15;;
37453;SDS011;23315;52.078;4.756;2023-09-19T03:24:42;14.80;;;2.80;;
37453;SDS011;23315;52.078;4.756;2023-09-19T03:27:11;12.35;;;2.75;;
37453;SDS011;23315;52.078;4.756;2023-09-19T03:29:39;16.90;;;3.10;;
37453;SDS011;23315;52.078;4.756;2023-09-19T03:32:04;10.57;;;2.20;;
37453;SDS011;23315;52.078;4.756;2023-09-19T03:34:30;8.95;;;2.55;;
37453;SDS011;23315;52.078;4.756;2023-09-19T03:36:55;15.55;;;3.63;;
37453;SDS011;23315;52.078;4.756;2023-09-19T03:39:20;15.75;;;5.30;;
37453;SDS011;23315;52.078;4.756;2023-09-19T03:41:46;14.40;;;3.40;;
37453;SDS011;23315;52.078;4.756;2023-09-19T03:44:11;13.98;;;3.15;;
37453;SDS011;23315;52.078;4.756;2023-09-19T03:46:36;12.23;;;2.20;;
37453;SDS011;23315;52.078;4.756;2023-09-19T03:49:02;8.77;;;1.70;;
37453;SDS011;23315;52.078;4.756;2023-09-19T03:51:28;10.77;;;2.22;;
37453;SDS011;23315;52.078;4.756;2023-09-19T03:53:53;11.95;;;2.88;;
37453;SDS011;23315;52.078;4.756;2023-09-19T03:56:18;14.98;;;2.58;;
37453;SDS011;23315;52.078;4.756;2023-09-19T03:58:44;12.18;;;2.13;;
37453;SDS011;23315;52.078;4.756;2023-09-19T04:01:09;6.78;;;1.98;;
37453;SDS011;23315;52.078;4.756;2023-09-19T04:03:35;9.05;;;1.60;;
37453;SDS011;23315;52.078;4.756;2023-09-19T04:06:11;17.83;;;3.25;;
37453;SDS011;23315;52.078;4.756;2023-09-19T04:08:40;14.75;;;3.15;;
37453;SDS011;23315;52.078;4.756;2023-09-19T04:11:05;10.65;;;2.53;;
37453;SDS011;23315;52.078;4.756;2023-09-19T04:13:30;9.38;;;2.28;;
37453;SDS011;23315;52.078;4.756;2023-09-19T04:15:56;11.93;;;3.05;;
37453;SDS011;23315;52.078;4.756;2023-09-19T04:18:21;13.75;;;2.50;;
37453;SDS011;23315;52.078;4.756;2023-09-19T04:20:51;15.25;;;2.72;;
37453;SDS011;23315;52.078;4.756;2023-09-19T04:23:17;12.02;;;2.83;;
37453;SDS011;23315;52.078;4.756;2023-09-19T04:25:45;14.50;;;2.60;;
37453;SDS011;23315;52.078;4.756;2023-09-19T04:28:10;8.52;;;1.98;;
37453;SDS011;23315;52.078;4.756;2023-09-19T04:30:36;11.32;;;2.22;;
37453;SDS011;23315;52.078;4.756;2023-09-19T04:33:02;15.00;;;3.42;;
37453;SDS011;23315;52.078;4.756;2023-09-19T04:35:28;27.83;;;3.03;;
37453;SDS011;23315;52.078;4.756;2023-09-19T04:37:56;13.80;;;2.25;;
37453;SDS011;23315;52.078;4.756;2023-09-19T04:40:22;11.55;;;3.00;;
37453;SDS011;23315;52.078;4.756;2023-09-19T04:42:54;15.10;;;2.75;;
37453;SDS011;23315;52.078;4.756;2023-09-19T04:45:22;12.55;;;3.08;;
37453;SDS011;23315;52.078;4.756;2023-09-19T04:47:50;9.35;;;2.58;;
37453;SDS011;23315;52.078;4.756;2023-09-19T04:50:15;13.07;;;2.50;;
37453;SDS011;23315;52.078;4.756;2023-09-19T04:52:42;13.70;;;2.55;;
37453;SDS011;23315;52.078;4.756;2023-09-19T04:55:15;15.90;;;2.42;;
37453;SDS011;23315;52.078;4.756;2023-09-19T04:57:44;15.52;;;2.67;;
37453;SDS011;23315;52.078;4.756;2023-09-19T05:00:11;6.72;;;2.50;;
37453;SDS011;23315;52.078;4.756;2023-09-19T05:02:39;12.02;;;2.97;;
37453;SDS011;23315;52.078;4.756;2023-09-19T05:05:08;14.57;;;3.13;;
37453;SDS011;23315;52.078;4.756;2023-09-19T05:07:35;9.13;;;2.67;;
37453;SDS011;23315;52.078;4.756;2023-09-19T05:10:01;9.75;;;2.20;;
37453;SDS011;23315;52.078;4.756;2023-09-19T05:12:30;11.82;;;2.85;;
37453;SDS011;23315;52.078;4.756;2023-09-19T05:15:05;10.18;;;3.30;;
37453;SDS011;23315;52.078;4.756;2023-09-19T05:17:32;12.38;;;2.70;;
37453;SDS011;23315;52.078;4.756;2023-09-19T05:19:58;11.30;;;2.80;;
37453;SDS011;23315;52.078;4.756;2023-09-19T05:22:29;14.27;;;2.83;;
37453;SDS011;23315;52.078;4.756;2023-09-19T05:24:54;11.00;;;2.72;;
37453;SDS011;23315;52.078;4.756;2023-09-19T05:27:19;14.75;;;2.72;;
37453;SDS011;23315;52.078;4.756;2023-09-19T05:29:46;10.82;;;2.08;;
37453;SDS011;23315;52.078;4.756;2023-09-19T05:32:12;11.38;;;2.80;;
37453;SDS011;23315;52.078;4.756;2023-09-19T05:34:37;16.52;;;2.67;;
37453;SDS011;23315;52.078;4.756;2023-09-19T05:37:03;15.57;;;2.38;;
37453;SDS011;23315;52.078;4.756;2023-09-19T05:39:32;11.43;;;2.30;;
37453;SDS011;23315;52.078;4.756;2023-09-19T05:41:57;16.20;;;3.40;;
37453;SDS011;23315;52.078;4.756;2023-09-19T05:44:23;18.60;;;3.20;;
37453;SDS011;23315;52.078;4.756;2023-09-19T05:46:48;12.95;;;3.17;;
37453;SDS011;23315;52.078;4.756;2023-09-19T05:49:14;11.05;;;3.08;;
37453;SDS011;23315;52.078;4.756;2023-09-19T05:51:40;12.93;;;3.00;;
37453;SDS011;23315;52.078;4.756;2023-09-19T05:54:06;15.13;;;3.40;;
37453;SDS011;23315;52.078;4.756;2023-09-19T05:56:31;19.25;;;3.83;;
37453;SDS011;23315;52.078;4.756;2023-09-19T05:58:56;14.15;;;2.85;;
37453;SDS011;23315;52.078;4.756;2023-09-19T06:01:22;9.48;;;2.85;;
37453;SDS011;23315;52.078;4.756;2023-09-19T06:03:48;16.08;;;3.05;;
37453;SDS011;23315;52.078;4.756;2023-09-19T06:06:13;13.20;;;3.40;;
37453;SDS011;23315;52.078;4.756;2023-09-19T06:08:39;10.43;;;2.50;;
37453;SDS011;23315;52.078;4.756;2023-09-19T06:11:04;12.07;;;3.15;;
37453;SDS011;23315;52.078;4.756;2023-09-19T06:13:34;12.23;;;3.05;;
37453;SDS011;23315;52.078;4.756;2023-09-19T06:15:59;15.93;;;2.60;;
37453;SDS011;23315;52.078;4.756;2023-09-19T06:18:30;13.52;;;3.15;;
37453;SDS011;23315;52.078;4.756;2023-09-19T06:20:58;8.20;;;2.20;;
37453;SDS011;23315;52.078;4.756;2023-09-19T06:23:24;13.77;;;2.95;;
37453;SDS011;23315;52.078;4.756;2023-09-19T06:25:51;11.10;;;2.55;;
37453;SDS011;23315;52.078;4.756;2023-09-19T06:28:20;15.70;;;3.15;;
37453;SDS011;23315;52.078;4.756;2023-09-19T06:30:50;10.82;;;2.20;;
37453;SDS011;23315;52.078;4.756;2023-09-19T06:33:16;15.32;;;3.03;;
37453;SDS011;23315;52.078;4.756;2023-09-19T06:35:43;8.95;;;2.40;;
37453;SDS011;23315;52.078;4.756;2023-09-19T06:38:09;12.13;;;2.97;;
37453;SDS011;23315;52.078;4.756;2023-09-19T06:40:36;14.98;;;2.70;;
37453;SDS011;23315;52.078;4.756;2023-09-19T06:43:01;12.02;;;3.28;;
37453;SDS011;23315;52.078;4.756;2023-09-19T06:45:27;9.55;;;2.45;;
37453;SDS011;23315;52.078;4.756;2023-09-19T06:47:53;16.15;;;3.58;;
37453;SDS011;23315;52.078;4.756;2023-09-19T06:50:22;12.75;;;3.67;;
37453;SDS011;23315;52.078;4.756;2023-09-19T06:52:52;15.30;;;2.55;;
37453;SDS011;23315;52.078;4.756;2023-09-19T06:55:19;12.45;;;3.20;;
37453;SDS011;23315;52.078;4.756;2023-09-19T06:57:48;11.30;;;2.70;;
37453;SDS011;23315;52.078;4.756;2023-09-19T07:00:13;13.35;;;2.67;;
37453;SDS011;23315;52.078;4.756;2023-09-19T07:02:58;23.92;;;3.65;;
37453;SDS011;23315;52.078;4.756;2023-09-19T07:05:30;13.98;;;3.08;;
37453;SDS011;23315;52.078;4.756;2023-09-19T07:07:56;14.85;;;3.88;;
37453;SDS011;23315;52.078;4.756;2023-09-19T07:10:24;11.25;;;2.70;;
37453;SDS011;23315;52.078;4.756;2023-09-19T07:12:55;10.63;;;2.85;;
37453;SDS011;23315;52.078;4.756;2023-09-19T07:15:25;13.35;;;2.60;;
37453;SDS011;23315;52.078;4.756;2023-09-19T07:17:51;17.33;;;3.40;;
37453;SDS011;23315;52.078;4.756;2023-09-19T07:20:18;14.55;;;2.90;;
37453;SDS011;23315;52.078;4.756;2023-09-19T07:22:44;16.77;;;3.83;;
37453;SDS011;23315;52.078;4.756;2023-09-19T07:25:10;13.68;;;3.88;;
37453;SDS011;23315;52.078;4.756;2023-09-19T07:27:35;16.60;;;3.67;;
37453;SDS011;23315;52.078;4.756;2023-09-19T07:30:00;16.10;;;3.78;;
37453;SDS011;23315;52.078;4.756;2023-09-19T07:32:26;12.90;;;3.30;;
37453;SDS011;23315;52.078;4.756;2023-09-19T07:34:51;14.10;;;2.78;;
37453;SDS011;23315;52.078;4.756;2023-09-19T07:37:16;11.45;;;3.20;;
37453;SDS011;23315;52.078;4.756;2023-09-19T07:39:42;21.25;;;4.53;;
37453;SDS011;23315;52.078;4.756;2023-09-19T07:42:08;18.63;;;3.67;;
37453;SDS011;23315;52.078;4.756;2023-09-19T07:44:35;14.80;;;3.80;;
37453;SDS011;23315;52.078;4.756;2023-09-19T07:47:01;16.75;;;3.03;;
37453;SDS011;23315;52.078;4.756;2023-09-19T07:49:28;10.85;;;3.60;;
37453;SDS011;23315;52.078;4.756;2023-09-19T07:51:54;15.60;;;3.50;;
37453;SDS011;23315;52.078;4.756;2023-09-19T07:54:19;21.27;;;3.95;;
37453;SDS011;23315;52.078;4.756;2023-09-19T07:56:46;15.10;;;3.60;;
37453;SDS011;23315;52.078;4.756;2023-09-19T07:59:12;11.68;;;2.80;;
37453;SDS011;23315;52.078;4.756;2023-09-19T08:01:38;19.63;;;3.78;;
37453;SDS011;23315;52.078;4.756;2023-09-19T08:04:06;15.18;;;3.10;;
37453;SDS011;23315;52.078;4.756;2023-09-19T08:06:32;12.95;;;3.65;;
37453;SDS011;23315;52.078;4.756;2023-09-19T08:08:57;14.07;;;3.15;;
37453;SDS011;23315;52.078;4.756;2023-09-19T08:11:23;19.38;;;3.60;;
37453;SDS011;23315;52.078;4.756;2023-09-19T08:13:49;17.90;;;3.67;;
37453;SDS011;23315;52.078;4.756;2023-09-19T08:16:15;14.70;;;3.03;;
37453;SDS011;23315;52.078;4.756;2023-09-19T08:18:42;12.68;;;3.13;;
37453;SDS011;23315;52.078;4.756;2023-09-19T08:21:12;16.88;;;3.35;;
37453;SDS011;23315;52.078;4.756;2023-09-19T08:23:37;13.90;;;3.80;;
37453;SDS011;23315;52.078;4.756;2023-09-19T08:26:07;14.10;;;3.42;;
37453;SDS011;23315;52.078;4.756;2023-09-19T08:28:36;17.13;;;4.03;;
37453;SDS011;23315;52.078;4.756;2023-09-19T08:31:05;13.55;;;3.47;;
37453;SDS011;23315;52.078;4.756;2023-09-19T08:33:32;18.33;;;3.42;;
37453;SDS011;23315;52.078;4.756;2023-09-19T08:35:58;20.88;;;4.45;;
37453;SDS011;23315;52.078;4.756;2023-09-19T08:38:24;15.98;;;4.07;;
37453;SDS011;23315;52.078;4.756;2023-09-19T08:40:54;15.15;;;3.25;;
37453;SDS011;23315;52.078;4.756;2023-09-19T08:43:22;13.23;;;3.20;;
37453;SDS011;23315;52.078;4.756;2023-09-19T08:45:49;16.48;;;4.15;;
37453;SDS011;23315;52.078;4.756;2023-09-19T08:50:43;15.68;;;3.17;;
37453;SDS011;23315;52.078;4.756;2023-09-19T08:53:15;15.85;;;3.10;;
37453;SDS011;23315;52.078;4.756;2023-09-19T08:55:48;14.60;;;2.85;;
37453;SDS011;23315;52.078;4.756;2023-09-19T08:58:16;15.20;;;2.88;;
37453;SDS011;23315;52.078;4.756;2023-09-19T09:00:44;15.30;;;2.75;;
37453;SDS011;23315;52.078;4.756;2023-09-19T09:03:13;16.33;;;3.17;;
37453;SDS011;23315;52.078;4.756;2023-09-19T09:05:39;11.93;;;2.63;;
37453;SDS011;23315;52.078;4.756;2023-09-19T09:08:07;13.70;;;3.08;;
37453;SDS011;23315;52.078;4.756;2023-09-19T09:10:32;17.10;;;3.17;;
37453;SDS011;23315;52.078;4.756;2023-09-19T09:12:58;17.15;;;3.65;;
37453;SDS011;23315;52.078;4.756;2023-09-19T09:15:24;19.08;;;3.45;;
37453;SDS011;23315;52.078;4.756;2023-09-19T09:17:49;11.45;;;3.33;;
37453;SDS011;23315;52.078;4.756;2023-09-19T09:20:16;17.00;;;3.38;;
37453;SDS011;23315;52.078;4.756;2023-09-19T09:22:53;16.42;;;3.25;;
37453;SDS011;23315;52.078;4.756;2023-09-19T09:25:20;19.00;;;4.50;;
37453;SDS011;23315;52.078;4.756;2023-09-19T09:27:59;12.50;;;3.53;;
37453;SDS011;23315;52.078;4.756;2023-09-19T09:30:34;24.40;;;4.47;;
37453;SDS011;23315;52.078;4.756;2023-09-19T09:33:08;19.95;;;3.58;;
37453;SDS011;23315;52.078;4.756;2023-09-19T09:35:36;20.67;;;3.95;;
37453;SDS011;23315;52.078;4.756;2023-09-19T09:38:02;19.90;;;3.85;;
37453;SDS011;23315;52.078;4.756;2023-09-19T09:40:46;19.25;;;4.78;;
37453;SDS011;23315;52.078;4.756;2023-09-19T09:43:28;16.85;;;4.68;;
37453;SDS011;23315;52.078;4.756;2023-09-19T09:46:11;16.65;;;3.85;;
37453;SDS011;23315;52.078;4.756;2023-09-19T09:51:45;17.92;;;3.78;;
37453;SDS011;23315;52.078;4.756;2023-09-19T09:54:22;24.63;;;5.05;;
37453;SDS011;23315;52.078;4.756;2023-09-19T09:56:58;19.45;;;4.25;;
37453;SDS011;23315;52.078;4.756;2023-09-19T09:59:43;20.58;;;5.38;;
37453;SDS011;23315;52.078;4.756;2023-09-19T10:02:13;17.88;;;5.53;;
37453;SDS011;23315;52.078;4.756;2023-09-19T10:04:41;20.98;;;6.18;;
37453;SDS011;23315;52.078;4.756;2023-09-19T10:07:30;21.05;;;5.00;;
37453;SDS011;23315;52.078;4.756;2023-09-19T10:10:14;27.23;;;7.22;;
37453;SDS011;23315;52.078;4.756;2023-09-19T10:12:47;22.70;;;6.45;;
37453;SDS011;23315;52.078;4.756;2023-09-19T10:15:17;19.30;;;5.03;;
37453;SDS011;23315;52.078;4.756;2023-09-19T10:17:46;20.38;;;5.03;;
37453;SDS011;23315;52.078;4.756;2023-09-19T10:20:13;20.95;;;5.47;;
37453;SDS011;23315;52.078;4.756;2023-09-19T10:22:57;27.50;;;5.47;;
37453;SDS011;23315;52.078;4.756;2023-09-19T10:25:26;23.92;;;5.38;;
37453;SDS011;23315;52.078;4.756;2023-09-19T10:27:56;22.40;;;4.50;;
37453;SDS011;23315;52.078;4.756;2023-09-19T10:30:24;18.92;;;4.70;;
37453;SDS011;23315;52.078;4.756;2023-09-19T10:33:05;20.83;;;3.92;;
37453;SDS011;23315;52.078;4.756;2023-09-19T10:35:33;18.33;;;4.57;;
37453;SDS011;23315;52.078;4.756;2023-09-19T10:37:59;20.35;;;4.07;;
37453;SDS011;23315;52.078;4.756;2023-09-19T10:40:26;27.27;;;5.55;;
37453;SDS011;23315;52.078;4.756;2023-09-19T10:43:02;23.17;;;5.22;;
37453;SDS011;23315;52.078;4.756;2023-09-19T10:45:30;19.63;;;4.32;;
37453;SDS011;23315;52.078;4.756;2023-09-19T10:47:57;19.20;;;4.65;;
37453;SDS011;23315;52.078;4.756;2023-09-19T10:50:22;24.13;;;4.68;;
37453;SDS011;23315;52.078;4.756;2023-09-19T10:52:48;28.10;;;4.68;;
37453;SDS011;23315;52.078;4.756;2023-09-19T10:55:17;23.02;;;5.20;;
37453;SDS011;23315;52.078;4.756;2023-09-19T10:57:47;21.27;;;5.45;;
37453;SDS011;23315;52.078;4.756;2023-09-19T11:00:13;21.85;;;3.80;;
37453;SDS011;23315;52.078;4.756;2023-09-19T11:06:03;19.00;;;4.82;;
37453;SDS011;23315;52.078;4.756;2023-09-19T11:11:40;17.80;;;4.47;;
37453;SDS011;23315;52.078;4.756;2023-09-19T11:14:13;24.92;;;4.90;;
37453;SDS011;23315;52.078;4.756;2023-09-19T11:23:23;21.60;;;4.40;;
37453;SDS011;23315;52.078;4.756;2023-09-19T11:30:33;17.85;;;4.32;;
37453;SDS011;23315;52.078;4.756;2023-09-19T11:46:26;26.05;;;4.70;;
37453;SDS011;23315;52.078;4.756;2023-09-19T11:48:52;24.98;;;5.03;;
37453;SDS011;23315;52.078;4.756;2023-09-19T11:51:24;22.10;;;5.05;;
37453;SDS011;23315;52.078;4.756;2023-09-19T11:53:55;20.83;;;5.75;;
37453;SDS011;23315;52.078;4.756;2023-09-19T11:56:27;26.80;;;6.25;;
37453;SDS011;23315;52.078;4.756;2023-09-19T11:58:54;31.40;;;6.50;;
37453;SDS011;23315;52.078;4.756;2023-09-19T12:01:22;18.98;;;4.78;;
37453;SDS011;23315;52.078;4.756;2023-09-19T12:03:52;24.88;;;5.97;;
37453;SDS011;23315;52.078;4.756;2023-09-19T12:06:19;21.05;;;5.68;;
37453;SDS011;23315;52.078;4.756;2023-09-19T12:08:46;27.23;;;6.35;;
37453;SDS011;23315;52.078;4.756;2023-09-19T12:11:13;21.65;;;5.95;;
37453;SDS011;23315;52.078;4.756;2023-09-19T12:13:46;24.98;;;4.97;;
37453;SDS011;23315;52.078;4.756;2023-09-19T12:16:17;26.67;;;6.40;;
37453;SDS011;23315;52.078;4.756;2023-09-19T12:18:46;22.02;;;5.28;;
37453;SDS011;23315;52.078;4.756;2023-09-19T12:21:31;25.70;;;5.30;;
37453;SDS011;23315;52.078;4.756;2023-09-19T12:26:42;26.20;;;5.88;;
37453;SDS011;23315;52.078;4.756;2023-09-19T12:29:21;38.67;;;6.03;;
37453;SDS011;23315;52.078;4.756;2023-09-19T12:31:53;19.95;;;4.82;;
37453;SDS011;23315;52.078;4.756;2023-09-19T12:37:06;22.38;;;4.93;;
37453;SDS011;23315;52.078;4.756;2023-09-19T12:39:45;20.45;;;5.35;;
37453;SDS011;23315;52.078;4.756;2023-09-19T12:42:16;24.70;;;5.10;;
37453;SDS011;23315;52.078;4.756;2023-09-19T12:44:46;21.40;;;6.15;;
37453;SDS011;23315;52.078;4.756;2023-09-19T12:47:16;23.02;;;5.25;;
37453;SDS011;23315;52.078;4.756;2023-09-19T12:52:35;23.00;;;5.13;;
37453;SDS011;23315;52.078;4.756;2023-09-19T13:00:35;26.90;;;6.50;;
37453;SDS011;23315;52.078;4.756;2023-09-19T13:06:14;30.02;;;6.53;;
37453;SDS011;23315;52.078;4.756;2023-09-19T13:08:35;26.17;;;6.35;;
37453;SDS011;23315;52.078;4.756;2023-09-19T13:13:44;25.90;;;5.90;;
37453;SDS011;23315;52.078;4.756;2023-09-19T13:16:18;27.13;;;6.65;;
37453;SDS011;23315;52.078;4.756;2023-09-19T13:18:47;21.25;;;5.68;;
37453;SDS011;23315;52.078;4.756;2023-09-19T13:21:31;30.10;;;7.57;;
37453;SDS011;23315;52.078;4.756;2023-09-19T13:24:23;24.60;;;5.68;;
37453;SDS011;23315;52.078;4.756;2023-09-19T13:26:52;27.35;;;5.40;;
37453;SDS011;23315;52.078;4.756;2023-09-19T13:29:18;27.73;;;6.47;;
37453;SDS011;23315;52.078;4.756;2023-09-19T13:31:47;31.52;;;7.90;;
37453;SDS011;23315;52.078;4.756;2023-09-19T13:34:13;25.80;;;5.72;;
37453;SDS011;23315;52.078;4.756;2023-09-19T13:36:41;28.70;;;6.80;;
37453;SDS011;23315;52.078;4.756;2023-09-19T13:39:07;25.40;;;6.55;;
37453;SDS011;23315;52.078;4.756;2023-09-19T13:41:34;27.23;;;5.78;;
37453;SDS011;23315;52.078;4.756;2023-09-19T13:44:02;26.58;;;5.93;;
37453;SDS011;23315;52.078;4.756;2023-09-19T13:46:28;31.45;;;7.30;;
37453;SDS011;23315;52.078;4.756;2023-09-19T13:48:53;26.52;;;6.60;;
37453;SDS011;23315;52.078;4.756;2023-09-19T13:51:20;22.85;;;6.00;;
37453;SDS011;23315;52.078;4.756;2023-09-19T13:53:48;27.58;;;6.45;;
37453;SDS011;23315;52.078;4.756;2023-09-19T13:56:13;26.85;;;5.95;;
37453;SDS011;23315;52.078;4.756;2023-09-19T13:58:39;26.27;;;5.38;;
37453;SDS011;23315;52.078;4.756;2023-09-19T14:01:06;32.33;;;7.50;;
37453;SDS011;23315;52.078;4.756;2023-09-19T14:03:37;30.05;;;5.80;;
37453;SDS011;23315;52.078;4.756;2023-09-19T14:06:03;35.60;;;6.65;;
37453;SDS011;23315;52.078;4.756;2023-09-19T14:08:28;29.98;;;8.68;;
37453;SDS011;23315;52.078;4.756;2023-09-19T14:10:54;32.53;;;6.40;;
37453;SDS011;23315;52.078;4.756;2023-09-19T14:13:19;25.40;;;6.97;;
37453;SDS011;23315;52.078;4.756;2023-09-19T14:15:45;31.67;;;6.05;;
37453;SDS011;23315;52.078;4.756;2023-09-19T14:18:11;34.10;;;7.43;;
37453;SDS011;23315;52.078;4.756;2023-09-19T14:20:40;39.20;;;9.38;;
37453;SDS011;23315;52.078;4.756;2023-09-19T14:23:06;31.98;;;8.90;;
37453;SDS011;23315;52.078;4.756;2023-09-19T14:25:33;33.70;;;7.07;;
37453;SDS011;23315;52.078;4.756;2023-09-19T14:27:59;27.92;;;6.55;;
37453;SDS011;23315;52.078;4.756;2023-09-19T14:30:25;40.90;;;9.23;;
37453;SDS011;23315;52.078;4.756;2023-09-19T14:32:50;36.85;;;7.60;;
37453;SDS011;23315;52.078;4.756;2023-09-19T14:35:16;33.78;;;7.22;;
37453;SDS011;23315;52.078;4.756;2023-09-19T14:37:42;31.85;;;7.05;;
37453;SDS011;23315;52.078;4.756;2023-09-19T14:40:07;31.00;;;6.28;;
37453;SDS011;23315;52.078;4.756;2023-09-19T14:42:34;29.60;;;7.00;;
37453;SDS011;23315;52.078;4.756;2023-09-19T14:45:02;33.00;;;7.80;;
37453;SDS011;23315;52.078;4.756;2023-09-19T14:47:28;31.50;;;7.18;;
37453;SDS011;23315;52.078;4.756;2023-09-19T14:49:56;34.03;;;7.22;;
37453;SDS011;23315;52.078;4.756;2023-09-19T14:52:23;39.53;;;9.75;;
37453;SDS011;23315;52.078;4.756;2023-09-19T14:54:51;31.70;;;7.30;;
37453;SDS011;23315;52.078;4.756;2023-09-19T14:57:16;32.80;;;7.80;;
37453;SDS011;23315;52.078;4.756;2023-09-19T14:59:41;43.50;;;7.72;;
37453;SDS011;23315;52.078;4.756;2023-09-19T15:02:07;41.10;;;7.65;;
37453;SDS011;23315;52.078;4.756;2023-09-19T15:04:32;35.05;;;8.25;;
37453;SDS011;23315;52.078;4.756;2023-09-19T15:06:58;35.83;;;7.70;;
37453;SDS011;23315;52.078;4.756;2023-09-19T15:09:25;33.00;;;7.68;;
37453;SDS011;23315;52.078;4.756;2023-09-19T15:11:54;30.98;;;7.80;;
37453;SDS011;23315;52.078;4.756;2023-09-19T15:14:20;35.72;;;8.93;;
37453;SDS011;23315;52.078;4.756;2023-09-19T15:16:46;31.98;;;7.78;;
37453;SDS011;23315;52.078;4.756;2023-09-19T15:19:12;35.78;;;7.75;;
37453;SDS011;23315;52.078;4.756;2023-09-19T15:21:37;40.50;;;8.80;;
37453;SDS011;23315;52.078;4.756;2023-09-19T15:24:02;31.15;;;7.07;;
37453;SDS011;23315;52.078;4.756;2023-09-19T15:26:28;36.60;;;8.50;;
37453;SDS011;23315;52.078;4.756;2023-09-19T15:28:54;31.30;;;6.63;;
37453;SDS011;23315;52.078;4.756;2023-09-19T15:31:20;31.08;;;7.35;;
37453;SDS011;23315;52.078;4.756;2023-09-19T15:33:45;43.05;;;9.57;;
37453;SDS011;23315;52.078;4.756;2023-09-19T15:36:11;33.15;;;8.52;;
37453;SDS011;23315;52.078;4.756;2023-09-19T15:41:36;37.75;;;8.95;;
37453;SDS011;23315;52.078;4.756;2023-09-19T15:44:12;35.00;;;8.45;;
37453;SDS011;23315;52.078;4.756;2023-09-19T15:46:39;42.60;;;10.13;;
37453;SDS011;23315;52.078;4.756;2023-09-19T15:49:04;48.25;;;8.77;;
37453;SDS011;23315;52.078;4.756;2023-09-19T15:51:29;29.30;;;6.78;;
37453;SDS011;23315;52.078;4.756;2023-09-19T15:53:55;42.10;;;8.18;;